Time;durP1;ratioP1;P1;durP2;ratioP2;P2;SDS_P1;SDS_P2;PMS_P1;PMS_P2;Temp;Humidity;BMP_temperature;BMP_pressure;BME280_temperature;BME280_humidity;BME280_pressure;Samples;Min_cycle;Max_cycle;Signal;HPM_P1;HPM_P2
2023/01/15 00:02:04;0.00;0.00;0.62;0.00;0.00;0.62;1.20;0.60;;;22.50;28.30;;;;;;2256661;61;20480;-70
2023/01/15 00:04:31;0.00;0.00;0.62;0.00;0.00;0.62;1.43;0.60;;;22.50;28.90;;;;;;2256487;61;20521;-67
2023/01/15 00:06:57;0.00;0.00;0.62;0.00;0.00;0.62;1.50;0.70;;;22.50;28.30;;;;;;2256382;61;20846;-66
2023/01/15 00:09:23;0.00;0.00;0.62;0.00;0.00;0.62;1.70;0.60;;;22.50;28.30;;;;;;2256570;61;20359;-66
2023/01/15 00:11:50;0.00;0.00;0.62;0.00;0.00;0.62;1.23;0.60;;;22.50;28.30;;;;;;2256165;61;20359;-66
2023/01/15 00:14:16;0.00;0.00;0.62;0.00;0.00;0.62;1.40;0.60;;;22.50;28.40;;;;;;2256326;61;20750;-67
2023/01/15 00:16:44;0.00;0.00;0.62;0.00;0.00;0.62;1.20;0.60;;;22.50;28.30;;;;;;2256267;61;20801;-68
2023/01/15 00:19:11;0.00;0.00;0.62;0.00;0.00;0.62;1.70;0.80;;;22.50;28.30;;;;;;2256546;61;20370;-69
2023/01/15 00:21:37;0.00;0.00;0.62;0.00;0.00;0.62;1.50;0.63;;;22.50;28.30;;;;;;2255368;61;20364;-67
2023/01/15 00:29:34;0.00;0.00;0.62;0.00;0.00;0.62;1.20;0.50;;;22.50;28.30;;;;;;2255176;61;20370;-68
2023/01/15 00:32:05;0.00;0.00;0.62;0.00;0.00;0.62;1.20;0.60;;;22.50;28.30;;;;;;2256140;61;20432;-69
2023/01/15 00:34:33;0.00;0.00;0.62;0.00;0.00;0.62;1.20;0.60;;;22.50;28.30;;;;;;2252889;61;20382;-67
2023/01/15 00:37:01;0.00;0.00;0.62;0.00;0.00;0.62;1.20;0.60;;;22.50;28.30;;;;;;2251542;61;20797;-66
2023/01/15 00:39:27;0.00;0.00;0.62;0.00;0.00;0.62;1.40;0.60;;;22.50;28.40;;;;;;2252570;61;20370;-67
2023/01/15 00:41:55;0.00;0.00;0.62;0.00;0.00;0.62;1.73;0.60;;;22.50;28.30;;;;;;2255362;61;20383;-69
2023/01/15 00:44:21;0.00;0.00;0.62;0.00;0.00;0.62;1.37;0.60;;;22.50;28.30;;;;;;2251819;61;20411;-67
2023/01/15 00:46:48;0.00;0.00;0.62;0.00;0.00;0.62;1.40;0.60;;;22.60;28.40;;;;;;2252140;61;20368;-66
2023/01/15 00:49:16;0.00;0.00;0.62;0.00;0.00;0.62;1.20;0.60;;;22.50;28.80;;;;;;2252500;61;20376;-69
2023/01/15 00:51:42;0.00;0.00;0.62;0.00;0.00;0.62;1.30;0.60;;;22.50;28.30;;;;;;2253067;61;20368;-69
2023/01/15 00:54:09;0.00;0.00;0.62;0.00;0.00;0.62;1.67;0.60;;;22.60;28.40;;;;;;2252245;61;20375;-68
2023/01/15 00:56:36;0.00;0.00;0.62;0.00;0.00;0.62;1.33;0.80;;;22.60;28.30;;;;;;2251572;61;20375;-68
2023/01/15 00:59:04;0.00;0.00;0.62;0.00;0.00;0.62;1.20;0.60;;;22.60;28.30;;;;;;2254829;61;20472;-68
2023/01/15 01:01:31;0.00;0.00;0.62;0.00;0.00;0.62;1.67;0.60;;;22.60;28.30;;;;;;2255218;61;20359;-69
2023/01/15 01:03:57;0.00;0.00;0.62;0.00;0.00;0.62;1.50;0.70;;;22.60;28.30;;;;;;2252104;61;20445;-68
2023/01/15 01:06:25;0.00;0.00;0.62;0.00;0.00;0.62;1.20;0.50;;;22.60;28.30;;;;;;2252289;61;20363;-69
2023/01/15 01:08:52;0.00;0.00;0.62;0.00;0.00;0.62;1.20;0.60;;;22.60;28.30;;;;;;2252377;61;20371;-69
2023/01/15 01:11:25;0.00;0.00;0.62;0.00;0.00;0.62;1.30;0.60;;;22.60;28.30;;;;;;2251376;61;20387;-68
2023/01/15 01:13:54;0.00;0.00;0.62;0.00;0.00;0.62;1.30;0.60;;;22.60;28.40;;;;;;2253447;61;20414;-68
2023/01/15 01:16:29;0.00;0.00;0.62;0.00;0.00;0.62;2.10;0.60;;;22.60;28.30;;;;;;2256656;61;20891;-68
2023/01/15 01:18:57;0.00;0.00;0.62;0.00;0.00;0.62;1.40;0.60;;;22.60;28.30;;;;;;2256317;61;20398;-68
2023/01/15 01:21:25;0.00;0.00;0.62;0.00;0.00;0.62;1.30;0.70;;;22.60;28.90;;;;;;2252874;61;20414;-68
2023/01/15 01:23:52;0.00;0.00;0.62;0.00;0.00;0.62;1.20;0.60;;;22.60;28.30;;;;;;2252265;61;20474;-67
2023/01/15 01:26:19;0.00;0.00;0.62;0.00;0.00;0.62;1.60;0.87;;;22.60;28.30;;;;;;2252361;61;20367;-71
2023/01/15 01:28:49;0.00;0.00;0.62;0.00;0.00;0.62;1.23;0.60;;;22.60;28.30;;;;;;2250919;61;20375;-70
2023/01/15 01:31:16;0.00;0.00;0.62;0.00;0.00;0.62;1.20;0.60;;;22.60;28.40;;;;;;2255233;61;20419;-65
2023/01/15 01:33:42;0.00;0.00;0.62;0.00;0.00;0.62;1.70;0.60;;;22.60;28.40;;;;;;2255127;61;20375;-65
2023/01/15 01:36:09;0.00;0.00;0.62;0.00;0.00;0.62;1.30;0.60;;;22.60;28.40;;;;;;2252917;61;20390;-65
2023/01/15 01:38:36;0.00;0.00;0.62;0.00;0.00;0.62;1.83;0.60;;;22.60;28.40;;;;;;2252625;61;20374;-65
2023/01/15 01:41:04;0.00;0.00;0.62;0.00;0.00;0.62;1.60;0.70;;;22.70;28.50;;;;;;2252790;61;20363;-63
2023/01/15 01:43:50;0.00;0.00;0.62;0.00;0.00;0.62;1.20;0.60;;;22.70;28.50;;;;;;2252359;61;20403;-66
2023/01/15 01:46:18;0.00;0.00;0.62;0.00;0.00;0.62;2.33;0.67;;;22.70;28.50;;;;;;2255107;61;20808;-66
2023/01/15 01:48:45;0.00;0.00;0.62;0.00;0.00;0.62;2.50;0.60;;;22.70;28.40;;;;;;2252985;61;20379;-68
2023/01/15 01:51:12;0.00;0.00;0.62;0.00;0.00;0.62;3.00;0.60;;;22.70;28.30;;;;;;2251865;61;20422;-66
2023/01/15 01:53:40;0.00;0.00;0.62;0.00;0.00;0.62;1.70;0.67;;;22.70;28.30;;;;;;2255163;61;20995;-70
2023/01/15 01:56:08;0.00;0.00;0.62;0.00;0.00;0.62;1.20;0.60;;;22.70;28.20;;;;;;2255675;61;20933;-65
2023/01/15 01:58:35;0.00;0.00;0.62;0.00;0.00;0.62;1.47;0.70;;;22.70;28.20;;;;;;2255488;61;20880;-65
2023/01/15 02:01:02;0.00;0.00;0.62;0.00;0.00;0.62;1.27;0.60;;;22.70;28.20;;;;;;2252725;61;20865;-67
2023/01/15 02:03:34;0.00;0.00;0.62;0.00;0.00;0.62;1.30;0.60;;;22.70;28.20;;;;;;2253171;61;20442;-66
2023/01/15 02:06:05;0.00;0.00;0.62;0.00;0.00;0.62;2.13;0.60;;;22.70;28.10;;;;;;2258131;61;20361;-66
2023/01/15 02:08:32;0.00;0.00;0.62;0.00;0.00;0.62;3.60;0.90;;;22.70;28.10;;;;;;2255548;61;20423;-66
2023/01/15 02:11:01;0.00;0.00;0.62;0.00;0.00;0.62;1.97;0.70;;;22.70;28.10;;;;;;2256452;61;20795;-68
2023/01/15 02:13:36;0.00;0.00;0.62;0.00;0.00;0.62;1.40;0.60;;;22.70;28.10;;;;;;2257027;61;20444;-66
2023/01/15 02:16:11;0.00;0.00;0.62;0.00;0.00;0.62;1.30;0.60;;;22.70;28.10;;;;;;2256319;61;20473;-66
2023/01/15 02:18:48;0.00;0.00;0.62;0.00;0.00;0.62;1.30;0.60;;;22.70;28.10;;;;;;2256742;61;20382;-66
2023/01/15 02:21:24;0.00;0.00;0.62;0.00;0.00;0.62;1.30;0.70;;;22.70;28.10;;;;;;2256078;61;20365;-65
2023/01/15 02:24:14;0.00;0.00;0.62;0.00;0.00;0.62;1.27;0.60;;;22.70;28.00;;;;;;2254923;61;20942;-65
2023/01/15 02:27:13;0.00;0.00;0.62;0.00;0.00;0.62;1.20;0.60;;;22.70;28.00;;;;;;2256026;61;20358;-66
2023/01/15 02:29:53;0.00;0.00;0.62;0.00;0.00;0.62;1.60;0.60;;;22.60;28.40;;;;;;2255177;61;20403;-65
2023/01/15 02:32:32;0.00;0.00;0.62;0.00;0.00;0.62;1.20;0.60;;;22.70;28.00;;;;;;2255374;61;20517;-67
2023/01/15 02:35:07;0.00;0.00;0.62;0.00;0.00;0.62;1.20;0.50;;;22.60;27.90;;;;;;2255397;61;20358;-66
2023/01/15 02:37:40;0.00;0.00;0.62;0.00;0.00;0.62;1.60;0.90;;;22.70;27.90;;;;;;2254950;61;20366;-65
2023/01/15 02:40:11;0.00;0.00;0.62;0.00;0.00;0.62;1.20;0.60;;;22.70;28.00;;;;;;2255469;61;20369;-67
2023/01/15 02:42:41;0.00;0.00;0.62;0.00;0.00;0.62;1.33;0.70;;;22.60;27.90;;;;;;2255115;61;20390;-66
2023/01/15 02:45:09;0.00;0.00;0.62;0.00;0.00;0.62;1.40;0.70;;;22.60;27.90;;;;;;2254721;61;20869;-66
2023/01/15 02:47:39;0.00;0.00;0.62;0.00;0.00;0.62;1.30;0.67;;;22.60;27.90;;;;;;2255133;61;20371;-63
2023/01/15 02:50:13;0.00;0.00;0.62;0.00;0.00;0.62;1.20;0.70;;;22.60;27.90;;;;;;2255503;61;20362;-62
2023/01/15 02:52:46;0.00;0.00;0.62;0.00;0.00;0.62;1.20;0.60;;;22.70;27.90;;;;;;2254816;61;20393;-66
2023/01/15 02:55:21;0.00;0.00;0.62;0.00;0.00;0.62;1.40;0.70;;;22.70;27.90;;;;;;2255386;61;20366;-68
2023/01/15 02:57:50;0.00;0.00;0.62;0.00;0.00;0.62;1.30;0.63;;;22.60;27.80;;;;;;2255170;61;20374;-67
2023/01/15 03:00:21;0.00;0.00;0.62;0.00;0.00;0.62;1.73;0.60;;;22.60;27.80;;;;;;2254791;61;20889;-65
2023/01/15 03:02:57;0.00;0.00;0.62;0.00;0.00;0.62;1.20;0.53;;;22.60;27.80;;;;;;2253323;61;20919;-66
2023/01/15 03:05:30;0.00;0.00;0.62;0.00;0.00;0.62;1.40;0.60;;;22.60;27.80;;;;;;2256395;61;20358;-65
2023/01/15 03:07:59;0.00;0.00;0.62;0.00;0.00;0.62;1.20;0.60;;;22.60;27.80;;;;;;2255811;61;20363;-66
2023/01/15 03:10:39;0.00;0.00;0.62;0.00;0.00;0.62;1.20;0.60;;;22.60;27.80;;;;;;2255924;61;20359;-64
2023/01/15 03:13:14;0.00;0.00;0.62;0.00;0.00;0.62;1.70;0.70;;;22.60;27.80;;;;;;2256020;61;20391;-64
2023/01/15 03:18:45;0.00;0.00;0.62;0.00;0.00;0.62;3.47;0.97;;;22.60;27.90;;;;;;2252818;61;20371;-64
2023/01/15 03:21:16;0.00;0.00;0.62;0.00;0.00;0.62;1.33;0.80;;;22.50;27.50;;;;;;2256749;61;20378;-62
2023/01/15 03:23:48;0.00;0.00;0.62;0.00;0.00;0.62;2.37;1.00;;;22.50;27.20;;;;;;2257727;61;20398;-64
2023/01/15 03:26:15;0.00;0.00;0.62;0.00;0.00;0.62;1.47;0.90;;;22.50;26.80;;;;;;2254520;61;20370;-65
2023/01/15 03:28:45;0.00;0.00;0.62;0.00;0.00;0.62;1.53;0.60;;;22.40;26.50;;;;;;2254838;61;20381;-65
2023/01/15 03:31:13;0.00;0.00;0.62;0.00;0.00;0.62;4.50;1.00;;;22.40;26.40;;;;;;2257847;61;20363;-65
2023/01/15 03:33:40;0.00;0.00;0.62;0.00;0.00;0.62;1.73;0.70;;;22.30;26.40;;;;;;2257909;61;20371;-65
2023/01/15 03:36:13;0.00;0.00;0.62;0.00;0.00;0.62;1.63;0.80;;;22.20;26.20;;;;;;2255257;61;20354;-65
2023/01/15 03:38:46;0.00;0.00;0.62;0.00;0.00;0.62;1.60;0.70;;;22.20;26.20;;;;;;2254398;61;20389;-65
2023/01/15 03:41:26;0.00;0.00;0.62;0.00;0.00;0.62;2.00;0.83;;;22.10;26.00;;;;;;2255060;61;20378;-64
2023/01/15 03:44:10;0.00;0.00;0.62;0.00;0.00;0.62;1.87;0.80;;;22.10;26.00;;;;;;2254949;61;20387;-64
2023/01/15 03:47:02;0.00;0.00;0.62;0.00;0.00;0.62;1.60;0.70;;;22.00;26.00;;;;;;2254553;61;20401;-65
2023/01/15 03:49:45;0.00;0.00;0.62;0.00;0.00;0.62;2.20;0.80;;;21.90;26.00;;;;;;2254700;61;20481;-64
2023/01/15 03:52:27;0.00;0.00;0.62;0.00;0.00;0.62;1.83;0.70;;;21.90;25.90;;;;;;2253917;61;20383;-65
2023/01/15 03:55:07;0.00;0.00;0.62;0.00;0.00;0.62;1.90;0.83;;;21.80;25.90;;;;;;2254701;61;20362;-65
2023/01/15 03:57:40;0.00;0.00;0.62;0.00;0.00;0.62;1.90;0.80;;;21.80;26.00;;;;;;2251672;61;20363;-65
2023/01/15 04:00:14;0.00;0.00;0.62;0.00;0.00;0.62;1.40;0.80;;;21.70;25.90;;;;;;2254757;61;20733;-65
2023/01/15 04:02:45;0.00;0.00;0.62;0.00;0.00;0.62;2.30;0.80;;;21.70;25.90;;;;;;2254769;61;20497;-65
2023/01/15 04:05:15;0.00;0.00;0.62;0.00;0.00;0.62;1.90;1.10;;;21.60;25.90;;;;;;2254289;61;20649;-65
2023/01/15 04:07:42;0.00;0.00;0.62;0.00;0.00;0.62;3.60;0.80;;;21.60;25.90;;;;;;2254093;61;20896;-65
2023/01/15 04:10:10;0.00;0.00;0.62;0.00;0.00;0.62;1.60;0.83;;;21.60;26.00;;;;;;2254021;61;20785;-65
2023/01/15 04:12:38;0.00;0.00;0.62;0.00;0.00;0.62;4.20;0.80;;;21.50;25.90;;;;;;2254459;61;20917;-64
2023/01/15 04:15:12;0.00;0.00;0.62;0.00;0.00;0.62;2.23;0.90;;;21.50;25.90;;;;;;2254192;61;20367;-65
2023/01/15 04:17:39;0.00;0.00;0.62;0.00;0.00;0.62;1.80;0.90;;;21.40;25.80;;;;;;2254060;61;20363;-65
2023/01/15 04:20:08;0.00;0.00;0.62;0.00;0.00;0.62;3.40;1.00;;;21.40;25.80;;;;;;2254841;61;20359;-68
2023/01/15 04:22:39;0.00;0.00;0.62;0.00;0.00;0.62;1.67;0.90;;;21.40;25.80;;;;;;2254255;61;20379;-66
2023/01/15 04:25:08;0.00;0.00;0.62;0.00;0.00;0.62;1.70;0.90;;;21.30;25.80;;;;;;2254890;61;20907;-64
2023/01/15 04:27:34;0.00;0.00;0.62;0.00;0.00;0.62;1.43;0.80;;;21.20;25.80;;;;;;2254810;61;20371;-65
2023/01/15 04:30:01;0.00;0.00;0.62;0.00;0.00;0.62;2.23;0.90;;;21.20;25.80;;;;;;2253025;61;20446;-65
2023/01/15 04:32:29;0.00;0.00;0.62;0.00;0.00;0.62;1.70;0.90;;;21.20;25.80;;;;;;2254693;61;20390;-65
2023/01/15 04:34:55;0.00;0.00;0.62;0.00;0.00;0.62;1.53;0.90;;;21.10;25.70;;;;;;2255870;61;20371;-65
2023/01/15 04:37:22;0.00;0.00;0.62;0.00;0.00;0.62;1.57;0.70;;;21.10;25.70;;;;;;2255261;61;20370;-65
2023/01/15 04:39:50;0.00;0.00;0.62;0.00;0.00;0.62;1.40;0.70;;;21.00;25.70;;;;;;2254961;61;20429;-65
2023/01/15 04:45:02;0.00;0.00;0.62;0.00;0.00;0.62;2.67;0.90;;;21.00;25.80;;;;;;2255029;61;20359;-64
2023/01/15 04:47:31;0.00;0.00;0.62;0.00;0.00;0.62;1.87;0.93;;;20.90;25.80;;;;;;2254973;61;20355;-65
2023/01/15 04:49:57;0.00;0.00;0.62;0.00;0.00;0.62;1.40;0.90;;;20.90;25.90;;;;;;2255621;61;20771;-65
2023/01/15 04:52:24;0.00;0.00;0.62;0.00;0.00;0.62;2.63;1.00;;;20.90;25.90;;;;;;2255457;61;20958;-64
2023/01/15 04:54:52;0.00;0.00;0.62;0.00;0.00;0.62;1.70;0.80;;;20.90;25.90;;;;;;2258444;61;20366;-65
2023/01/15 04:57:19;0.00;0.00;0.62;0.00;0.00;0.62;3.20;1.20;;;20.80;25.90;;;;;;2254621;61;20363;-65
2023/01/15 04:59:46;0.00;0.00;0.62;0.00;0.00;0.62;1.70;0.97;;;20.80;25.90;;;;;;2254822;61;20363;-64
2023/01/15 05:02:12;0.00;0.00;0.62;0.00;0.00;0.62;3.07;1.07;;;20.80;25.90;;;;;;2254701;61;20395;-64
2023/01/15 05:04:40;0.00;0.00;0.62;0.00;0.00;0.62;3.00;1.57;;;20.80;25.90;;;;;;2255812;61;21061;-64
2023/01/15 05:07:08;0.00;0.00;0.62;0.00;0.00;0.62;1.80;1.13;;;20.80;25.90;;;;;;2254350;61;20367;-65
2023/01/15 05:09:35;0.00;0.00;0.62;0.00;0.00;0.62;2.43;0.93;;;20.70;25.80;;;;;;2255177;61;20505;-65
2023/01/15 05:12:02;0.00;0.00;0.62;0.00;0.00;0.62;1.87;1.13;;;20.70;25.90;;;;;;2255577;61;20366;-65
2023/01/15 05:14:30;0.00;0.00;0.62;0.00;0.00;0.62;3.00;1.00;;;20.70;25.90;;;;;;2255065;61;20359;-65
2023/01/15 05:16:57;0.00;0.00;0.62;0.00;0.00;0.62;2.00;1.10;;;20.70;25.80;;;;;;2254449;61;20421;-65
2023/01/15 05:19:23;0.00;0.00;0.62;0.00;0.00;0.62;2.33;1.23;;;20.60;25.70;;;;;;2258334;61;20360;-64
2023/01/15 05:21:53;0.00;0.00;0.62;0.00;0.00;0.62;2.03;1.07;;;20.60;25.70;;;;;;2255036;61;20363;-65
2023/01/15 05:24:20;0.00;0.00;0.62;0.00;0.00;0.62;2.40;1.07;;;20.60;25.80;;;;;;2255078;61;20453;-65
2023/01/15 05:26:47;0.00;0.00;0.62;0.00;0.00;0.62;3.03;0.90;;;20.50;25.70;;;;;;2255484;61;20366;-65
2023/01/15 05:29:13;0.00;0.00;0.62;0.00;0.00;0.62;1.60;0.93;;;20.50;25.80;;;;;;2255234;61;20355;-65
2023/01/15 05:31:44;0.00;0.00;0.62;0.00;0.00;0.62;2.33;1.00;;;20.50;25.80;;;;;;2255255;61;20359;-65
2023/01/15 05:34:11;0.00;0.00;0.62;0.00;0.00;0.62;3.30;1.03;;;20.40;25.80;;;;;;2254559;61;20410;-65
2023/01/15 05:36:38;0.00;0.00;0.62;0.00;0.00;0.62;2.20;1.20;;;20.40;25.90;;;;;;2253770;61;20609;-65
2023/01/15 05:39:06;0.00;0.00;0.62;0.00;0.00;0.62;3.47;1.37;;;20.40;25.90;;;;;;2255411;61;21004;-64
2023/01/15 05:41:48;0.00;0.00;0.62;0.00;0.00;0.62;3.83;0.90;;;20.40;25.90;;;;;;2255869;61;20377;-65
2023/01/15 05:44:17;0.00;0.00;0.62;0.00;0.00;0.62;4.17;1.40;;;20.40;25.90;;;;;;2254433;61;20550;-64
2023/01/15 05:46:45;0.00;0.00;0.62;0.00;0.00;0.62;1.90;0.90;;;20.30;25.80;;;;;;2254844;61;21045;-64
2023/01/15 05:49:14;0.00;0.00;0.62;0.00;0.00;0.62;3.43;1.40;;;20.30;25.80;;;;;;2255301;61;20362;-65
2023/01/15 05:51:41;0.00;0.00;0.62;0.00;0.00;0.62;2.40;1.40;;;20.30;25.90;;;;;;2255033;61;20442;-64
2023/01/15 05:54:13;0.00;0.00;0.62;0.00;0.00;0.62;2.90;1.07;;;20.30;25.80;;;;;;2254355;61;20375;-64
2023/01/15 05:56:41;0.00;0.00;0.62;0.00;0.00;0.62;2.90;1.17;;;20.20;25.80;;;;;;2255741;61;20468;-65
2023/01/15 05:59:09;0.00;0.00;0.62;0.00;0.00;0.62;2.07;1.10;;;20.20;25.90;;;;;;2257604;61;20363;-64
2023/01/15 06:01:36;0.00;0.00;0.62;0.00;0.00;0.62;2.53;1.17;;;20.20;25.90;;;;;;2255318;61;20370;-64
2023/01/15 06:04:05;0.00;0.00;0.62;0.00;0.00;0.62;1.70;1.10;;;20.10;25.80;;;;;;2254866;61;20477;-65
2023/01/15 06:06:33;0.00;0.00;0.62;0.00;0.00;0.62;2.10;1.20;;;20.10;25.80;;;;;;2255026;61;21118;-64
2023/01/15 06:08:59;0.00;0.00;0.62;0.00;0.00;0.62;2.93;1.20;;;20.10;25.80;;;;;;2255225;61;20385;-65
2023/01/15 06:11:27;0.00;0.00;0.62;0.00;0.00;0.62;2.33;1.20;;;20.10;25.80;;;;;;2254574;61;20373;-64
2023/01/15 06:13:54;0.00;0.00;0.62;0.00;0.00;0.62;3.10;1.23;;;20.00;25.70;;;;;;2254666;61;20823;-64
2023/01/15 06:16:21;0.00;0.00;0.62;0.00;0.00;0.62;2.20;1.17;;;20.00;25.70;;;;;;2254916;61;20449;-65
2023/01/15 06:18:48;0.00;0.00;0.62;0.00;0.00;0.62;2.93;1.30;;;20.00;25.80;;;;;;2254633;61;20986;-65
2023/01/15 06:21:15;0.00;0.00;0.62;0.00;0.00;0.62;3.10;1.10;;;20.00;25.80;;;;;;2255259;61;20370;-65
2023/01/15 06:23:43;0.00;0.00;0.62;0.00;0.00;0.62;2.63;1.60;;;20.00;25.80;;;;;;2254780;61;20433;-65
2023/01/15 06:26:13;0.00;0.00;0.62;0.00;0.00;0.62;2.20;1.30;;;19.90;25.80;;;;;;2253551;61;20363;-65
2023/01/15 06:28:42;0.00;0.00;0.62;0.00;0.00;0.62;4.83;1.30;;;19.90;25.80;;;;;;2255182;61;20362;-65
2023/01/15 06:31:12;0.00;0.00;0.62;0.00;0.00;0.62;2.53;1.43;;;19.90;25.80;;;;;;2254841;61;20370;-65
2023/01/15 06:33:39;0.00;0.00;0.62;0.00;0.00;0.62;2.33;0.97;;;19.90;25.80;;;;;;2255468;61;20526;-64
2023/01/15 06:36:09;0.00;0.00;0.62;0.00;0.00;0.62;2.27;1.30;;;19.80;25.70;;;;;;2254925;61;20377;-65
2023/01/15 06:38:36;0.00;0.00;0.62;0.00;0.00;0.62;3.17;1.80;;;19.80;25.70;;;;;;2254800;61;20417;-64
2023/01/15 06:47:19;0.00;0.00;0.62;0.00;0.00;0.62;2.83;1.00;;;19.80;25.70;;;;;;2255703;61;20446;-64
2023/01/15 06:49:30;0.00;0.00;0.62;0.00;0.00;0.62;3.17;1.33;;;19.70;25.80;;;;;;2255081;61;20450;-64
2023/01/15 06:51:58;0.00;0.00;0.62;0.00;0.00;0.62;2.20;1.50;;;19.70;25.80;;;;;;2254610;61;20874;-64
2023/01/15 06:54:24;0.00;0.00;0.62;0.00;0.00;0.62;3.60;2.10;;;19.70;25.80;;;;;;2254845;61;20366;-66
2023/01/15 06:56:51;0.00;0.00;0.62;0.00;0.00;0.62;2.07;1.03;;;19.60;25.80;;;;;;2255067;61;20397;-64
2023/01/15 06:59:20;0.00;0.00;0.62;0.00;0.00;0.62;4.60;1.50;;;19.60;25.70;;;;;;2255691;61;20351;-64
2023/01/15 07:01:46;0.00;0.00;0.62;0.00;0.00;0.62;3.23;1.13;;;19.60;25.70;;;;;;2255594;61;20876;-65
2023/01/15 07:04:14;0.00;0.00;0.62;0.00;0.00;0.62;2.37;1.30;;;19.60;25.80;;;;;;2254918;61;21058;-64
2023/01/15 07:06:41;0.00;0.00;0.62;0.00;0.00;0.62;3.00;1.30;;;19.60;25.80;;;;;;2254778;61;20890;-65
2023/01/15 07:09:07;0.00;0.00;0.62;0.00;0.00;0.62;3.10;1.50;;;19.50;26.30;;;;;;2255227;61;20386;-64
2023/01/15 07:11:34;0.00;0.00;0.62;0.00;0.00;0.62;2.80;1.30;;;19.50;25.70;;;;;;2254781;61;20407;-64
2023/01/15 07:14:06;0.00;0.00;0.62;0.00;0.00;0.62;4.67;1.50;;;19.50;25.80;;;;;;2254465;61;20645;-66
2023/01/15 07:16:35;0.00;0.00;0.62;0.00;0.00;0.62;2.90;1.30;;;19.50;25.70;;;;;;2255369;61;20359;-65
2023/01/15 07:19:03;0.00;0.00;0.62;0.00;0.00;0.62;2.57;1.00;;;19.50;25.70;;;;;;2255158;61;20804;-64
2023/01/15 07:21:30;0.00;0.00;0.62;0.00;0.00;0.62;4.73;1.90;;;19.40;25.70;;;;;;2254658;61;20428;-64
2023/01/15 07:24:00;0.00;0.00;0.62;0.00;0.00;0.62;4.07;1.50;;;19.40;25.60;;;;;;2254730;61;20437;-65
2023/01/15 07:26:27;0.00;0.00;0.62;0.00;0.00;0.62;2.80;1.30;;;19.40;25.60;;;;;;2253567;61;20370;-64
2023/01/15 07:28:54;0.00;0.00;0.62;0.00;0.00;0.62;4.13;1.23;;;19.30;26.10;;;;;;2254610;61;20530;-64
2023/01/15 07:31:21;0.00;0.00;0.62;0.00;0.00;0.62;3.23;1.40;;;19.30;25.60;;;;;;2255368;61;20368;-64
2023/01/15 07:33:49;0.00;0.00;0.62;0.00;0.00;0.62;4.50;1.53;;;19.30;25.60;;;;;;2254886;61;20371;-65
2023/01/15 07:36:15;0.00;0.00;0.62;0.00;0.00;0.62;2.90;1.87;;;19.30;25.60;;;;;;2254938;61;20382;-65
2023/01/15 07:38:42;0.00;0.00;0.62;0.00;0.00;0.62;4.47;1.33;;;19.20;25.50;;;;;;2254734;61;20359;-65
2023/01/15 07:49:44;0.00;0.00;0.62;0.00;0.00;0.62;4.90;1.30;;;19.10;25.50;;;;;;2254307;61;20370;-66
2023/01/15 07:52:10;0.00;0.00;0.62;0.00;0.00;0.62;3.17;1.00;;;19.10;25.50;;;;;;2254722;61;20391;-64
2023/01/15 07:54:37;0.00;0.00;0.62;0.00;0.00;0.62;4.43;1.70;;;19.00;26.00;;;;;;2253394;61;20453;-65
2023/01/15 07:57:05;0.00;0.00;0.62;0.00;0.00;0.62;4.43;1.67;;;19.00;25.50;;;;;;2253878;61;20432;-64
2023/01/15 07:59:31;0.00;0.00;0.62;0.00;0.00;0.62;2.77;1.30;;;19.00;25.50;;;;;;2255047;61;20359;-64
2023/01/15 08:01:58;0.00;0.00;0.62;0.00;0.00;0.62;4.07;1.87;;;18.90;25.50;;;;;;2256739;61;20351;-63
2023/01/15 08:04:25;0.00;0.00;0.62;0.00;0.00;0.62;3.10;1.43;;;18.90;25.50;;;;;;2256094;61;20399;-63
2023/01/15 08:06:52;0.00;0.00;0.62;0.00;0.00;0.62;4.53;1.60;;;18.90;25.50;;;;;;2256691;61;20470;-64
2023/01/15 08:09:18;0.00;0.00;0.62;0.00;0.00;0.62;4.33;1.53;;;18.90;25.40;;;;;;2257799;61;20449;-65
2023/01/15 08:17:15;0.00;0.00;0.62;0.00;0.00;0.62;4.40;1.90;;;18.80;25.60;;;;;;2256366;61;20238;-63
2023/01/15 08:19:42;0.00;0.00;0.62;0.00;0.00;0.62;5.03;1.53;;;18.70;25.60;;;;;;2256195;61;20397;-64
2023/01/15 08:22:10;0.00;0.00;0.62;0.00;0.00;0.62;4.23;1.30;;;18.70;25.70;;;;;;2256102;61;20825;-66
2023/01/15 08:24:36;0.00;0.00;0.62;0.00;0.00;0.62;7.13;1.83;;;18.70;25.70;;;;;;2256418;61;20409;-66
2023/01/15 08:27:03;0.00;0.00;0.62;0.00;0.00;0.62;2.90;1.67;;;18.70;25.70;;;;;;2256179;61;20412;-65
2023/01/15 08:29:30;0.00;0.00;0.62;0.00;0.00;0.62;3.03;1.53;;;18.70;25.70;;;;;;2256436;61;20355;-64
2023/01/15 08:31:56;0.00;0.00;0.62;0.00;0.00;0.62;3.33;1.27;;;18.70;25.70;;;;;;2256834;61;20443;-65
2023/01/15 08:34:23;0.00;0.00;0.62;0.00;0.00;0.62;4.37;1.70;;;18.70;25.70;;;;;;2255628;61;20363;-66
2023/01/15 08:36:56;0.00;0.00;0.62;0.00;0.00;0.62;2.70;1.43;;;18.70;25.70;;;;;;2255914;61;20899;-65
2023/01/15 08:39:22;0.00;0.00;0.62;0.00;0.00;0.62;4.17;1.77;;;18.70;25.70;;;;;;2257113;61;20906;-65
2023/01/15 08:41:48;0.00;0.00;0.62;0.00;0.00;0.62;2.77;1.40;;;18.60;25.60;;;;;;2256432;61;20389;-67
2023/01/15 08:44:15;0.00;0.00;0.62;0.00;0.00;0.62;4.17;1.70;;;18.60;25.60;;;;;;2256675;61;20481;-65
2023/01/15 08:46:42;0.00;0.00;0.62;0.00;0.00;0.62;4.33;1.30;;;18.60;25.60;;;;;;2256383;61;20409;-66
2023/01/15 08:49:10;0.00;0.00;0.62;0.00;0.00;0.62;3.07;1.60;;;18.60;25.60;;;;;;2255983;61;20366;-65
2023/01/15 08:51:36;0.00;0.00;0.62;0.00;0.00;0.62;5.00;1.57;;;18.60;25.60;;;;;;2253667;61;20879;-63
2023/01/15 08:54:04;0.00;0.00;0.62;0.00;0.00;0.62;4.80;1.87;;;18.60;25.60;;;;;;2256918;61;20383;-67
2023/01/15 08:56:31;0.00;0.00;0.62;0.00;0.00;0.62;4.13;1.50;;;18.60;25.60;;;;;;2256136;61;20462;-65
2023/01/15 08:58:57;0.00;0.00;0.62;0.00;0.00;0.62;5.60;1.80;;;18.60;25.60;;;;;;2256186;61;20355;-65
2023/01/15 09:01:23;0.00;0.00;0.62;0.00;0.00;0.62;3.60;1.50;;;18.60;26.20;;;;;;2256424;61;20416;-66
2023/01/15 09:03:50;0.00;0.00;0.62;0.00;0.00;0.62;6.43;1.60;;;18.60;25.70;;;;;;2256131;61;20485;-64
2023/01/15 09:06:16;0.00;0.00;0.62;0.00;0.00;0.62;3.90;1.30;;;18.60;25.60;;;;;;2257105;61;20408;-65
2023/01/15 09:08:43;0.00;0.00;0.62;0.00;0.00;0.62;2.37;1.23;;;18.50;25.50;;;;;;2256680;61;20429;-61
2023/01/15 09:11:12;0.00;0.00;0.62;0.00;0.00;0.62;2.10;1.10;;;18.50;25.40;;;;;;2255847;61;20365;-62
2023/01/15 09:13:39;0.00;0.00;0.62;0.00;0.00;0.62;4.90;1.40;;;18.50;25.20;;;;;;2258788;61;20383;-64
2023/01/15 09:16:08;0.00;0.00;0.62;0.00;0.00;0.62;2.97;1.50;;;18.50;25.10;;;;;;2257534;61;20795;-67
2023/01/15 09:18:37;0.00;0.00;0.62;0.00;0.00;0.62;3.73;1.57;;;18.50;25.10;;;;;;2256392;61;20366;-66
2023/01/15 09:21:05;0.00;0.00;0.62;0.00;0.00;0.62;3.70;2.00;;;18.40;25.20;;;;;;2258057;61;20982;-65
2023/01/15 09:23:31;0.00;0.00;0.62;0.00;0.00;0.62;3.60;1.40;;;18.40;25.30;;;;;;2258006;61;20399;-62
2023/01/15 09:26:00;0.00;0.00;0.62;0.00;0.00;0.62;4.33;1.70;;;18.40;25.40;;;;;;2259924;61;20358;-66
2023/01/15 09:28:28;0.00;0.00;0.62;0.00;0.00;0.62;2.10;1.30;;;18.30;25.40;;;;;;2256926;61;20891;-65
2023/01/15 09:30:55;0.00;0.00;0.62;0.00;0.00;0.62;4.37;1.70;;;18.30;25.40;;;;;;2260070;61;20930;-70
2023/01/15 09:33:21;0.00;0.00;0.62;0.00;0.00;0.62;3.30;1.40;;;18.40;25.50;;;;;;2256384;61;20883;-66
2023/01/15 09:35:48;0.00;0.00;0.62;0.00;0.00;0.62;3.47;1.57;;;18.30;25.40;;;;;;2257458;61;20355;-65
2023/01/15 09:38:17;0.00;0.00;0.62;0.00;0.00;0.62;2.90;1.60;;;18.30;26.00;;;;;;2257513;61;20358;-63
2023/01/15 09:40:49;0.00;0.00;0.62;0.00;0.00;0.62;3.10;1.20;;;18.30;25.40;;;;;;2257279;61;20872;-65
2023/01/15 09:43:37;0.00;0.00;0.62;0.00;0.00;0.62;5.73;1.70;;;18.30;25.40;;;;;;2258119;61;20387;-65
2023/01/15 09:46:10;0.00;0.00;0.62;0.00;0.00;0.62;2.97;1.37;;;18.30;25.40;;;;;;2257312;61;20394;-64
2023/01/15 09:48:52;0.00;0.00;0.62;0.00;0.00;0.62;3.10;1.20;;;18.30;25.40;;;;;;2260037;61;20385;-69
2023/01/15 09:51:28;0.00;0.00;0.62;0.00;0.00;0.62;6.07;1.90;;;18.30;25.40;;;;;;2258170;61;20404;-66
2023/01/15 09:54:16;0.00;0.00;0.62;0.00;0.00;0.62;4.50;1.60;;;18.30;25.40;;;;;;2257088;61;20469;-66
2023/01/15 09:56:42;0.00;0.00;0.62;0.00;0.00;0.62;3.30;1.97;;;18.30;25.40;;;;;;2258040;61;20366;-65
2023/01/15 09:59:24;0.00;0.00;0.62;0.00;0.00;0.62;3.40;1.10;;;18.30;25.40;;;;;;2257596;61;20771;-64
2023/01/15 10:01:52;0.00;0.00;0.62;0.00;0.00;0.62;4.37;2.27;;;18.30;25.40;;;;;;2257009;61;20363;-66
2023/01/15 10:04:33;0.00;0.00;0.62;0.00;0.00;0.62;3.37;1.70;;;18.30;25.40;;;;;;2257202;61;20390;-61
2023/01/15 10:07:10;0.00;0.00;0.62;0.00;0.00;0.62;3.47;1.33;;;18.40;25.40;;;;;;2256203;61;20458;-64
2023/01/15 10:09:39;0.00;0.00;0.62;0.00;0.00;0.62;2.87;1.20;;;18.40;25.50;;;;;;2257485;61;20446;-66
2023/01/15 10:12:35;0.00;0.00;0.62;0.00;0.00;0.62;2.83;1.40;;;18.40;25.50;;;;;;2258209;61;20386;-66
2023/01/15 10:15:24;0.00;0.00;0.62;0.00;0.00;0.62;4.40;1.50;;;18.50;25.50;;;;;;2258327;61;20351;-65
2023/01/15 10:17:52;0.00;0.00;0.62;0.00;0.00;0.62;4.80;1.50;;;18.50;25.60;;;;;;2257635;61;20465;-65
2023/01/15 10:20:55;0.00;0.00;0.62;0.00;0.00;0.62;2.77;1.57;;;18.60;25.70;;;;;;2257314;61;20453;-61
2023/01/15 10:23:50;0.00;0.00;0.62;0.00;0.00;0.62;2.00;1.10;;;18.60;25.70;;;;;;2255372;61;20480;-59